24A

Jackson County Airport

Sylva, North Carolina, USA
METAR K24A 092220Z AUTO 00000KT 10SM OVC025 02/01 A2993 RMK AO2 T00190010
Observed Flight Rules
Dec-9 @ 22:20 UTC (28 minutes ago) Marginal Visual Flight Rules
Visibility Clouds
10 miles
  • Overcast at 2,500' AGL
Temperatures Readings
Current 2°C / 36°F
Dewpoint 1°C / 34°F
Humidity 93%
Altimeter 29.93" Hg
Pressure 1014 hPa
Elevation 871
METAR K24A 092220Z AUTO 00000KT 10SM OVC025 02/01 A2993 RMK AO2 T00190010
Observed Flight Rules
Dec-9 @ 22:20 UTC
(28 minutes ago)
MVFR
Clouds
  • Overcast at 2,500' AGL
Temperature Dewpoint
2°C / 36°F 1°C / 34°F
Humidity Altimeter Pressure
93% 29.93" Hg 1014 hPa